Etusivu
METAR-TAF:

METAR-TAF

Lentoasemat :

Tin City, Alaska, Yhdysvallat

Leveyspiiri: 65-34N, Pituuspiiri: 167-55W, korkeus merenpinnasta: 83 m

Tämänhetkinen sää

Tämä raportti tehtiin 31 minuuttia sitten, kello 00.55 UTC
Tuuli 18 kn pohjoisesta/koillisesta
Lämpötila 2°C
Kosteus 75%
Ilmanpaine 1012 hPa
Näkyvyys: 16.1 km
Muutamia pilviä 1700 ft:n korkeudessa

METAR: PATC 190055Z AUTO 02018KT 10SM FEW017 02/M02 A2987 RMK AO2 SLP121 T00161020

Aika: 17:26 (01:26 UTC)


TAF: puuttuu

Säähavainnot ja -ennusteet yli 4000 lentoasemalta (METAR- ja TAF-raportit).

Käytössä olevat sääasemat on merkitty karttaan keltaisilla ja punaisilla pisteillä.

Aseta hiiri pisteen päälle nähdäksesi sääaseman nimen.

Klikkaa sitten nähdäksesi säähavainnot ja -ennusteet.

Kartan vaihtaminen: klikkaa mustalla rastilla varustettuja vihreitä pisteitä, niin voit zoomata sisään; viivalla varustettua vihreää pistettä, niin voit zoomata ulos tai vihreitä nuolia, niin pääset viereisille kartoille.


METAR-TAF: